sensor_id;sensor_type;location;lat;lon;timestamp;temperature;humidity
19224;DHT22;9746;47.180;9.776;2023-03-20T03:44:52;7.00;99.90
19224;DHT22;9746;47.180;9.776;2023-03-20T03:47:24;7.00;99.90
19224;DHT22;9746;47.180;9.776;2023-03-20T03:50:07;6.90;99.90
19224;DHT22;9746;47.180;9.776;2023-03-20T03:52:38;6.90;99.90
19224;DHT22;9746;47.180;9.776;2023-03-20T03:55:19;6.80;99.90
19224;DHT22;9746;47.180;9.776;2023-03-20T03:57:51;6.80;99.90
19224;DHT22;9746;47.180;9.776;2023-03-20T04:00:31;6.70;99.90
19224;DHT22;9746;47.180;9.776;2023-03-20T04:02:59;6.70;99.90
19224;DHT22;9746;47.180;9.776;2023-03-20T04:05:35;6.70;99.90
19224;DHT22;9746;47.180;9.776;2023-03-20T04:08:04;6.60;99.90
19224;DHT22;9746;47.180;9.776;2023-03-20T04:10:45;6.60;99.90
19224;DHT22;9746;47.180;9.776;2023-03-20T04:13:12;6.60;99.90
19224;DHT22;9746;47.180;9.776;2023-03-20T04:15:54;6.60;99.90
19224;DHT22;9746;47.180;9.776;2023-03-20T04:18:22;6.60;99.90
19224;DHT22;9746;47.180;9.776;2023-03-20T04:20:55;6.60;99.90
19224;DHT22;9746;47.180;9.776;2023-03-20T04:23:22;6.50;99.90
19224;DHT22;9746;47.180;9.776;2023-03-20T04:25:51;6.60;99.90
19224;DHT22;9746;47.180;9.776;2023-03-20T04:28:18;6.60;99.90
19224;DHT22;9746;47.180;9.776;2023-03-20T04:30:58;6.60;99.90
19224;DHT22;9746;47.180;9.776;2023-03-20T04:33:26;6.60;99.90
19224;DHT22;9746;47.180;9.776;2023-03-20T04:35:54;6.60;99.90
19224;DHT22;9746;47.180;9.776;2023-03-20T04:38:22;6.70;99.90
19224;DHT22;9746;47.180;9.776;2023-03-20T04:40:51;6.70;99.90
19224;DHT22;9746;47.180;9.776;2023-03-20T04:43:19;6.80;99.90
19224;DHT22;9746;47.180;9.776;2023-03-20T04:45:46;6.80;99.90
19224;DHT22;9746;47.180;9.776;2023-03-20T04:48:15;6.80;99.90
19224;DHT22;9746;47.180;9.776;2023-03-20T04:50:58;6.80;99.90
19224;DHT22;9746;47.180;9.776;2023-03-20T04:53:25;6.80;99.90
19224;DHT22;9746;47.180;9.776;2023-03-20T04:56:03;6.70;99.90
19224;DHT22;9746;47.180;9.776;2023-03-20T04:58:49;6.70;99.90
19224;DHT22;9746;47.180;9.776;2023-03-20T05:01:18;6.60;99.90
19224;DHT22;9746;47.180;9.776;2023-03-20T05:03:47;6.70;99.90
19224;DHT22;9746;47.180;9.776;2023-03-20T05:06:21;6.80;99.90
19224;DHT22;9746;47.180;9.776;2023-03-20T05:08:48;6.80;99.90
19224;DHT22;9746;47.180;9.776;2023-03-20T05:11:22;6.90;99.90
19224;DHT22;9746;47.180;9.776;2023-03-20T05:13:49;6.90;99.90
19224;DHT22;9746;47.180;9.776;2023-03-20T05:16:23;6.90;99.90
19224;DHT22;9746;47.180;9.776;2023-03-20T05:18:51;7.00;99.90
19224;DHT22;9746;47.180;9.776;2023-03-20T05:21:26;7.00;99.90
19224;DHT22;9746;47.180;9.776;2023-03-20T05:23:53;7.00;99.90
19224;DHT22;9746;47.180;9.776;2023-03-20T05:29:55;7.00;99.90
19224;DHT22;9746;47.180;9.776;2023-03-20T05:35:51;6.90;99.90
19224;DHT22;9746;47.180;9.776;2023-03-20T05:38:18;7.00;99.90
19224;DHT22;9746;47.180;9.776;2023-03-20T05:40:59;6.90;99.90
19224;DHT22;9746;47.180;9.776;2023-03-20T05:43:27;6.90;99.90
19224;DHT22;9746;47.180;9.776;2023-03-20T05:45:54;6.90;99.90
19224;DHT22;9746;47.180;9.776;2023-03-20T05:48:22;6.90;99.90
19224;DHT22;9746;47.180;9.776;2023-03-20T05:50:57;6.90;99.90
19224;DHT22;9746;47.180;9.776;2023-03-20T05:53:24;7.00;99.90
19224;DHT22;9746;47.180;9.776;2023-03-20T05:56:09;7.10;99.90
19224;DHT22;9746;47.180;9.776;2023-03-20T05:58:37;7.20;99.90
19224;DHT22;9746;47.180;9.776;2023-03-20T06:01:05;7.10;99.90
19224;DHT22;9746;47.180;9.776;2023-03-20T06:03:32;7.20;99.90
19224;DHT22;9746;47.180;9.776;2023-03-20T06:06:09;7.30;99.90
19224;DHT22;9746;47.180;9.776;2023-03-20T06:08:36;7.30;99.90
19224;DHT22;9746;47.180;9.776;2023-03-20T06:14:05;7.30;99.90
19224;DHT22;9746;47.180;9.776;2023-03-20T06:17:05;7.20;99.90
19224;DHT22;9746;47.180;9.776;2023-03-20T06:19:33;7.20;99.90
19224;DHT22;9746;47.180;9.776;2023-03-20T06:25:39;7.40;99.90
19224;DHT22;9746;47.180;9.776;2023-03-20T06:28:07;7.50;99.90
19224;DHT22;9746;47.180;9.776;2023-03-20T06:30:35;7.50;99.90
19224;DHT22;9746;47.180;9.776;2023-03-20T06:33:15;7.70;99.90
19224;DHT22;9746;47.180;9.776;2023-03-20T06:35:45;7.70;99.90
19224;DHT22;9746;47.180;9.776;2023-03-20T06:38:13;7.90;99.90
19224;DHT22;9746;47.180;9.776;2023-03-20T06:40:42;8.00;99.90
19224;DHT22;9746;47.180;9.776;2023-03-20T06:43:10;8.00;99.90
19224;DHT22;9746;47.180;9.776;2023-03-20T06:45:38;8.10;99.90
19224;DHT22;9746;47.180;9.776;2023-03-20T06:48:37;8.20;99.90
19224;DHT22;9746;47.180;9.776;2023-03-20T06:51:16;8.30;99.90
19224;DHT22;9746;47.180;9.776;2023-03-20T06:53:43;8.20;99.90
19224;DHT22;9746;47.180;9.776;2023-03-20T06:56:14;8.30;99.90
19224;DHT22;9746;47.180;9.776;2023-03-20T06:58:43;8.30;99.90
19224;DHT22;9746;47.180;9.776;2023-03-20T07:01:30;8.30;99.90
19224;DHT22;9746;47.180;9.776;2023-03-20T07:03:59;8.40;99.90
19224;DHT22;9746;47.180;9.776;2023-03-20T07:06:46;8.50;99.90
19224;DHT22;9746;47.180;9.776;2023-03-20T07:09:14;8.50;99.90
19224;DHT22;9746;47.180;9.776;2023-03-20T07:15:08;8.70;99.90
19224;DHT22;9746;47.180;9.776;2023-03-20T07:20:42;9.00;99.90
19224;DHT22;9746;47.180;9.776;2023-03-20T07:23:18;9.00;99.90
19224;DHT22;9746;47.180;9.776;2023-03-20T07:25:47;9.10;99.90
19224;DHT22;9746;47.180;9.776;2023-03-20T07:28:24;9.20;99.90
19224;DHT22;9746;47.180;9.776;2023-03-20T07:30:53;9.20;99.90
19224;DHT22;9746;47.180;9.776;2023-03-20T07:36:19;9.30;99.90
19224;DHT22;9746;47.180;9.776;2023-03-20T07:38:47;9.30;99.90
19224;DHT22;9746;47.180;9.776;2023-03-20T07:41:14;9.40;99.90
19224;DHT22;9746;47.180;9.776;2023-03-20T07:43:42;9.50;99.90
19224;DHT22;9746;47.180;9.776;2023-03-20T07:46:12;9.70;99.90
19224;DHT22;9746;47.180;9.776;2023-03-20T07:48:40;9.80;99.90
19224;DHT22;9746;47.180;9.776;2023-03-20T07:51:08;10.00;99.90
19224;DHT22;9746;47.180;9.776;2023-03-20T07:53:43;10.00;99.90
19224;DHT22;9746;47.180;9.776;2023-03-20T07:56:10;10.20;99.90
19224;DHT22;9746;47.180;9.776;2023-03-20T07:58:43;10.20;99.90
19224;DHT22;9746;47.180;9.776;2023-03-20T08:01:12;10.40;99.90
19224;DHT22;9746;47.180;9.776;2023-03-20T08:03:48;10.60;99.90
19224;DHT22;9746;47.180;9.776;2023-03-20T08:06:16;10.80;99.90
19224;DHT22;9746;47.180;9.776;2023-03-20T08:08:43;10.80;99.90
19224;DHT22;9746;47.180;9.776;2023-03-20T08:11:11;10.90;99.90
19224;DHT22;9746;47.180;9.776;2023-03-20T08:16:33;11.20;99.90
19224;DHT22;9746;47.180;9.776;2023-03-20T08:19:00;11.40;99.90
19224;DHT22;9746;47.180;9.776;2023-03-20T08:21:31;11.60;99.90
19224;DHT22;9746;47.180;9.776;2023-03-20T08:23:59;11.70;99.90
19224;DHT22;9746;47.180;9.776;2023-03-20T08:26:26;11.80;99.90
19224;DHT22;9746;47.180;9.776;2023-03-20T08:29:01;11.90;99.90
19224;DHT22;9746;47.180;9.776;2023-03-20T08:31:29;12.00;99.90
19224;DHT22;9746;47.180;9.776;2023-03-20T08:34:27;12.00;99.90
19224;DHT22;9746;47.180;9.776;2023-03-20T08:36:54;11.90;99.90
19224;DHT22;9746;47.180;9.776;2023-03-20T08:39:22;11.80;99.90
19224;DHT22;9746;47.180;9.776;2023-03-20T08:41:55;11.90;99.90
19224;DHT22;9746;47.180;9.776;2023-03-20T08:44:23;11.90;99.90
19224;DHT22;9746;47.180;9.776;2023-03-20T08:47:00;12.00;99.90
19224;DHT22;9746;47.180;9.776;2023-03-20T08:49:29;12.20;99.90
19224;DHT22;9746;47.180;9.776;2023-03-20T08:52:15;12.40;99.90
19224;DHT22;9746;47.180;9.776;2023-03-20T08:54:43;12.60;99.90
19224;DHT22;9746;47.180;9.776;2023-03-20T08:57:11;12.80;99.90
19224;DHT22;9746;47.180;9.776;2023-03-20T08:59:39;13.20;99.90
19224;DHT22;9746;47.180;9.776;2023-03-20T09:02:10;13.50;99.90
19224;DHT22;9746;47.180;9.776;2023-03-20T09:04:40;13.80;99.90
19224;DHT22;9746;47.180;9.776;2023-03-20T09:07:43;14.20;99.90
19224;DHT22;9746;47.180;9.776;2023-03-20T09:10:12;14.60;99.90
19224;DHT22;9746;47.180;9.776;2023-03-20T09:12:45;14.80;99.90
19224;DHT22;9746;47.180;9.776;2023-03-20T09:15:13;15.00;99.90
19224;DHT22;9746;47.180;9.776;2023-03-20T09:17:40;14.90;99.90
19224;DHT22;9746;47.180;9.776;2023-03-20T09:20:10;15.00;99.90
19224;DHT22;9746;47.180;9.776;2023-03-20T09:22:39;15.20;99.90
19224;DHT22;9746;47.180;9.776;2023-03-20T09:25:08;15.20;99.90
19224;DHT22;9746;47.180;9.776;2023-03-20T09:27:36;15.10;99.90
19224;DHT22;9746;47.180;9.776;2023-03-20T09:30:05;14.90;99.90
19224;DHT22;9746;47.180;9.776;2023-03-20T09:32:35;14.80;99.90
19224;DHT22;9746;47.180;9.776;2023-03-20T09:35:03;14.70;99.90
19224;DHT22;9746;47.180;9.776;2023-03-20T09:37:34;14.80;99.90
19224;DHT22;9746;47.180;9.776;2023-03-20T09:40:02;15.10;99.90
19224;DHT22;9746;47.180;9.776;2023-03-20T09:42:41;15.20;99.90
19224;DHT22;9746;47.180;9.776;2023-03-20T09:45:14;15.50;99.90
19224;DHT22;9746;47.180;9.776;2023-03-20T09:47:53;15.80;99.90
19224;DHT22;9746;47.180;9.776;2023-03-20T09:50:29;15.90;99.90
19224;DHT22;9746;47.180;9.776;2023-03-20T09:53:03;16.20;99.90
19224;DHT22;9746;47.180;9.776;2023-03-20T09:55:34;16.10;99.90
19224;DHT22;9746;47.180;9.776;2023-03-20T09:58:09;16.10;99.90
19224;DHT22;9746;47.180;9.776;2023-03-20T10:00:41;16.00;99.90
19224;DHT22;9746;47.180;9.776;2023-03-20T10:03:19;15.90;99.90
19224;DHT22;9746;47.180;9.776;2023-03-20T10:05:50;16.00;99.90
19224;DHT22;9746;47.180;9.776;2023-03-20T10:08:27;16.10;99.90
19224;DHT22;9746;47.180;9.776;2023-03-20T10:11:05;16.20;99.90
19224;DHT22;9746;47.180;9.776;2023-03-20T10:13:53;16.20;99.90
19224;DHT22;9746;47.180;9.776;2023-03-20T10:16:35;16.20;99.90
19224;DHT22;9746;47.180;9.776;2023-03-20T10:19:21;16.30;99.90
19224;DHT22;9746;47.180;9.776;2023-03-20T10:21:55;16.30;99.90
19224;DHT22;9746;47.180;9.776;2023-03-20T10:24:28;16.50;99.90
19224;DHT22;9746;47.180;9.776;2023-03-20T10:27:01;16.80;99.90
19224;DHT22;9746;47.180;9.776;2023-03-20T10:29:39;17.10;99.90
19224;DHT22;9746;47.180;9.776;2023-03-20T10:32:11;17.50;99.90
19224;DHT22;9746;47.180;9.776;2023-03-20T10:34:53;18.00;99.90
19224;DHT22;9746;47.180;9.776;2023-03-20T10:37:40;18.40;99.90
19224;DHT22;9746;47.180;9.776;2023-03-20T10:40:25;18.40;99.90
19224;DHT22;9746;47.180;9.776;2023-03-20T10:43:14;18.50;99.90
19224;DHT22;9746;47.180;9.776;2023-03-20T10:45:45;18.60;99.90
19224;DHT22;9746;47.180;9.776;2023-03-20T10:48:22;18.60;99.90
19224;DHT22;9746;47.180;9.776;2023-03-20T10:50:54;18.80;99.90
19224;DHT22;9746;47.180;9.776;2023-03-20T10:53:30;18.90;99.90
19224;DHT22;9746;47.180;9.776;2023-03-20T10:56:04;19.10;99.90
19224;DHT22;9746;47.180;9.776;2023-03-20T10:58:39;19.20;99.90
19224;DHT22;9746;47.180;9.776;2023-03-20T11:01:08;19.20;99.90
19224;DHT22;9746;47.180;9.776;2023-03-20T11:03:36;19.30;99.90
19224;DHT22;9746;47.180;9.776;2023-03-20T11:06:12;19.30;99.90
19224;DHT22;9746;47.180;9.776;2023-03-20T11:08:47;19.10;99.90
19224;DHT22;9746;47.180;9.776;2023-03-20T11:11:23;19.50;99.90
19224;DHT22;9746;47.180;9.776;2023-03-20T11:13:56;20.10;99.90
19224;DHT22;9746;47.180;9.776;2023-03-20T11:16:35;20.50;99.90
19224;DHT22;9746;47.180;9.776;2023-03-20T11:19:06;20.40;99.90
19224;DHT22;9746;47.180;9.776;2023-03-20T11:21:43;20.50;99.90
19224;DHT22;9746;47.180;9.776;2023-03-20T11:24:33;20.20;99.90
19224;DHT22;9746;47.180;9.776;2023-03-20T11:27:07;20.00;99.90
19224;DHT22;9746;47.180;9.776;2023-03-20T11:29:40;20.50;99.90
19224;DHT22;9746;47.180;9.776;2023-03-20T11:32:26;21.10;99.90
19224;DHT22;9746;47.180;9.776;2023-03-20T11:34:55;21.10;99.90
19224;DHT22;9746;47.180;9.776;2023-03-20T11:37:27;20.90;99.90
19224;DHT22;9746;47.180;9.776;2023-03-20T11:40:14;20.70;99.90
19224;DHT22;9746;47.180;9.776;2023-03-20T11:42:53;21.00;99.90
19224;DHT22;9746;47.180;9.776;2023-03-20T11:45:23;20.90;99.90
19224;DHT22;9746;47.180;9.776;2023-03-20T11:47:53;21.40;99.90
19224;DHT22;9746;47.180;9.776;2023-03-20T11:50:25;21.70;99.90
19224;DHT22;9746;47.180;9.776;2023-03-20T11:53:00;22.10;99.90
19224;DHT22;9746;47.180;9.776;2023-03-20T11:55:36;22.40;99.90
19224;DHT22;9746;47.180;9.776;2023-03-20T11:58:16;22.70;99.90
19224;DHT22;9746;47.180;9.776;2023-03-20T12:00:47;23.10;99.90
19224;DHT22;9746;47.180;9.776;2023-03-20T12:03:51;23.10;99.90
19224;DHT22;9746;47.180;9.776;2023-03-20T12:06:23;22.70;99.90
19224;DHT22;9746;47.180;9.776;2023-03-20T12:08:55;23.00;99.90
19224;DHT22;9746;47.180;9.776;2023-03-20T12:11:37;23.40;99.90
19224;DHT22;9746;47.180;9.776;2023-03-20T12:14:19;23.80;99.90
19224;DHT22;9746;47.180;9.776;2023-03-20T12:17:01;24.50;99.90
19224;DHT22;9746;47.180;9.776;2023-03-20T12:19:45;24.60;99.90
19224;DHT22;9746;47.180;9.776;2023-03-20T12:22:20;25.40;99.90
19224;DHT22;9746;47.180;9.776;2023-03-20T12:24:56;25.90;99.90
19224;DHT22;9746;47.180;9.776;2023-03-20T12:27:34;26.30;99.90
19224;DHT22;9746;47.180;9.776;2023-03-20T12:30:21;26.90;99.90
19224;DHT22;9746;47.180;9.776;2023-03-20T12:33:02;26.90;99.90
19224;DHT22;9746;47.180;9.776;2023-03-20T12:35:37;27.20;99.90
19224;DHT22;9746;47.180;9.776;2023-03-20T12:38:19;26.80;99.90
19224;DHT22;9746;47.180;9.776;2023-03-20T12:40:50;25.90;99.90
19224;DHT22;9746;47.180;9.776;2023-03-20T12:43:25;24.50;99.90
19224;DHT22;9746;47.180;9.776;2023-03-20T12:45:58;23.70;99.90
19224;DHT22;9746;47.180;9.776;2023-03-20T12:48:51;23.10;99.90
19224;DHT22;9746;47.180;9.776;2023-03-20T12:51:29;22.20;99.90
19224;DHT22;9746;47.180;9.776;2023-03-20T12:54:23;22.00;99.90
19224;DHT22;9746;47.180;9.776;2023-03-20T12:57:01;21.60;99.90
19224;DHT22;9746;47.180;9.776;2023-03-20T12:59:50;20.00;99.90
19224;DHT22;9746;47.180;9.776;2023-03-20T13:02:43;19.40;99.90
19224;DHT22;9746;47.180;9.776;2023-03-20T13:05:27;19.30;99.90
19224;DHT22;9746;47.180;9.776;2023-03-20T13:08:31;19.10;99.90
19224;DHT22;9746;47.180;9.776;2023-03-20T13:11:07;18.60;99.90
19224;DHT22;9746;47.180;9.776;2023-03-20T13:13:51;18.40;99.90
19224;DHT22;9746;47.180;9.776;2023-03-20T13:16:27;18.00;99.90
19224;DHT22;9746;47.180;9.776;2023-03-20T13:19:13;17.90;99.90
19224;DHT22;9746;47.180;9.776;2023-03-20T13:21:48;17.80;99.90
19224;DHT22;9746;47.180;9.776;2023-03-20T13:24:33;17.60;99.90
19224;DHT22;9746;47.180;9.776;2023-03-20T13:27:11;17.50;99.90
19224;DHT22;9746;47.180;9.776;2023-03-20T13:30:03;17.70;99.90
19224;DHT22;9746;47.180;9.776;2023-03-20T13:32:42;17.50;99.90
19224;DHT22;9746;47.180;9.776;2023-03-20T13:35:35;17.20;99.90
19224;DHT22;9746;47.180;9.776;2023-03-20T13:38:11;17.00;99.90
19224;DHT22;9746;47.180;9.776;2023-03-20T13:40:46;16.80;99.90
19224;DHT22;9746;47.180;9.776;2023-03-20T13:43:23;16.70;99.90
19224;DHT22;9746;47.180;9.776;2023-03-20T13:45:58;16.90;99.90
19224;DHT22;9746;47.180;9.776;2023-03-20T13:48:32;17.20;99.90
19224;DHT22;9746;47.180;9.776;2023-03-20T13:51:10;17.60;99.90
19224;DHT22;9746;47.180;9.776;2023-03-20T13:53:52;17.70;99.90
19224;DHT22;9746;47.180;9.776;2023-03-20T13:56:34;18.90;99.90
19224;DHT22;9746;47.180;9.776;2023-03-20T13:59:39;20.30;99.90
19224;DHT22;9746;47.180;9.776;2023-03-20T14:02:28;21.20;99.90
19224;DHT22;9746;47.180;9.776;2023-03-20T14:05:04;20.80;99.90
19224;DHT22;9746;47.180;9.776;2023-03-20T14:07:36;20.60;99.90
19224;DHT22;9746;47.180;9.776;2023-03-20T14:10:32;20.70;99.90
19224;DHT22;9746;47.180;9.776;2023-03-20T14:13:00;20.30;99.90
19224;DHT22;9746;47.180;9.776;2023-03-20T14:15:32;20.00;99.90
19224;DHT22;9746;47.180;9.776;2023-03-20T14:18:04;20.00;99.90
19224;DHT22;9746;47.180;9.776;2023-03-20T14:20:35;19.70;99.90
19224;DHT22;9746;47.180;9.776;2023-03-20T14:23:06;19.50;99.90
19224;DHT22;9746;47.180;9.776;2023-03-20T14:25:44;19.30;99.90
19224;DHT22;9746;47.180;9.776;2023-03-20T14:28:25;18.90;99.90
19224;DHT22;9746;47.180;9.776;2023-03-20T14:31:20;18.60;99.90
19224;DHT22;9746;47.180;9.776;2023-03-20T14:33:57;18.20;99.90
19224;DHT22;9746;47.180;9.776;2023-03-20T14:36:44;17.80;99.90
19224;DHT22;9746;47.180;9.776;2023-03-20T14:39:20;17.80;99.90
19224;DHT22;9746;47.180;9.776;2023-03-20T14:42:04;17.80;99.90
19224;DHT22;9746;47.180;9.776;2023-03-20T14:44:49;17.50;99.90
19224;DHT22;9746;47.180;9.776;2023-03-20T14:47:28;17.20;99.90
19224;DHT22;9746;47.180;9.776;2023-03-20T14:50:13;17.00;99.90
19224;DHT22;9746;47.180;9.776;2023-03-20T14:52:54;16.80;99.90
19224;DHT22;9746;47.180;9.776;2023-03-20T14:55:33;16.60;99.90
19224;DHT22;9746;47.180;9.776;2023-03-20T14:58:48;17.20;99.90
19224;DHT22;9746;47.180;9.776;2023-03-20T15:01:25;18.30;99.90
19224;DHT22;9746;47.180;9.776;2023-03-20T15:03:56;18.60;99.90
19224;DHT22;9746;47.180;9.776;2023-03-20T15:06:34;18.60;99.90
19224;DHT22;9746;47.180;9.776;2023-03-20T15:09:18;19.80;99.90
19224;DHT22;9746;47.180;9.776;2023-03-20T15:12:03;21.30;99.90
19224;DHT22;9746;47.180;9.776;2023-03-20T15:17:40;23.80;99.90
19224;DHT22;9746;47.180;9.776;2023-03-20T15:20:13;24.00;99.90
19224;DHT22;9746;47.180;9.776;2023-03-20T15:22:47;23.00;99.90
19224;DHT22;9746;47.180;9.776;2023-03-20T15:25:35;21.40;99.90
19224;DHT22;9746;47.180;9.776;2023-03-20T15:28:07;21.60;99.90
19224;DHT22;9746;47.180;9.776;2023-03-20T15:30:38;22.20;99.90
19224;DHT22;9746;47.180;9.776;2023-03-20T15:33:09;22.80;99.90
19224;DHT22;9746;47.180;9.776;2023-03-20T15:35:40;23.40;99.90
19224;DHT22;9746;47.180;9.776;2023-03-20T15:38:13;23.90;99.90
19224;DHT22;9746;47.180;9.776;2023-03-20T15:41:02;24.10;99.90
19224;DHT22;9746;47.180;9.776;2023-03-20T15:43:32;24.60;99.90
19224;DHT22;9746;47.180;9.776;2023-03-20T15:46:02;24.60;99.90
19224;DHT22;9746;47.180;9.776;2023-03-20T15:48:30;24.80;99.90
19224;DHT22;9746;47.180;9.776;2023-03-20T15:51:15;24.60;99.90
19224;DHT22;9746;47.180;9.776;2023-03-20T15:53:46;24.20;99.50
19224;DHT22;9746;47.180;9.776;2023-03-20T15:59:17;22.10;99.90
19224;DHT22;9746;47.180;9.776;2023-03-20T16:01:53;21.50;99.90
19224;DHT22;9746;47.180;9.776;2023-03-20T16:04:21;20.70;99.90
19224;DHT22;9746;47.180;9.776;2023-03-20T16:10:19;18.70;99.90
19224;DHT22;9746;47.180;9.776;2023-03-20T16:12:49;17.90;99.90
19224;DHT22;9746;47.180;9.776;2023-03-20T16:15:24;17.40;99.90
19224;DHT22;9746;47.180;9.776;2023-03-20T16:17:55;17.00;99.90
19224;DHT22;9746;47.180;9.776;2023-03-20T16:20:33;16.70;99.90
19224;DHT22;9746;47.180;9.776;2023-03-20T16:23:04;16.50;99.90
19224;DHT22;9746;47.180;9.776;2023-03-20T16:25:33;16.40;99.90
19224;DHT22;9746;47.180;9.776;2023-03-20T16:28:04;16.30;99.90
19224;DHT22;9746;47.180;9.776;2023-03-20T16:30:35;16.10;99.90
19224;DHT22;9746;47.180;9.776;2023-03-20T16:33:06;16.00;99.90
19224;DHT22;9746;47.180;9.776;2023-03-20T16:35:54;15.80;99.90
19224;DHT22;9746;47.180;9.776;2023-03-20T16:38:25;15.70;99.90
19224;DHT22;9746;47.180;9.776;2023-03-20T16:44:06;15.50;99.90
19224;DHT22;9746;47.180;9.776;2023-03-20T16:46:36;15.30;99.90
19224;DHT22;9746;47.180;9.776;2023-03-20T16:50:02;15.30;99.90
19224;DHT22;9746;47.180;9.776;2023-03-20T16:52:34;15.20;99.90
19224;DHT22;9746;47.180;9.776;2023-03-20T16:55:17;15.10;99.90
19224;DHT22;9746;47.180;9.776;2023-03-20T16:57:47;14.80;99.90
19224;DHT22;9746;47.180;9.776;2023-03-20T17:00:27;14.70;99.90
19224;DHT22;9746;47.180;9.776;2023-03-20T17:03:10;14.50;99.90
19224;DHT22;9746;47.180;9.776;2023-03-20T17:05:49;14.40;99.90
19224;DHT22;9746;47.180;9.776;2023-03-20T17:08:25;14.20;99.90
19224;DHT22;9746;47.180;9.776;2023-03-20T17:11:04;14.20;99.90
19224;DHT22;9746;47.180;9.776;2023-03-20T17:13:36;14.10;99.90
19224;DHT22;9746;47.180;9.776;2023-03-20T17:16:13;14.00;99.90
19224;DHT22;9746;47.180;9.776;2023-03-20T17:18:44;13.90;99.90
19224;DHT22;9746;47.180;9.776;2023-03-20T17:21:20;13.80;99.90
19224;DHT22;9746;47.180;9.776;2023-03-20T17:23:47;13.70;99.90
19224;DHT22;9746;47.180;9.776;2023-03-20T17:26:33;13.60;99.90
19224;DHT22;9746;47.180;9.776;2023-03-20T17:29:01;13.40;99.90
19224;DHT22;9746;47.180;9.776;2023-03-20T17:31:31;13.30;99.90
19224;DHT22;9746;47.180;9.776;2023-03-20T17:34:00;13.20;99.90
19224;DHT22;9746;47.180;9.776;2023-03-20T17:36:37;13.00;99.90
19224;DHT22;9746;47.180;9.776;2023-03-20T17:39:04;12.80;99.90
19224;DHT22;9746;47.180;9.776;2023-03-20T17:41:34;12.70;99.90
19224;DHT22;9746;47.180;9.776;2023-03-20T17:44:02;12.50;99.90
19224;DHT22;9746;47.180;9.776;2023-03-20T17:46:30;12.40;99.90
19224;DHT22;9746;47.180;9.776;2023-03-20T17:49:04;12.20;99.90
19224;DHT22;9746;47.180;9.776;2023-03-20T17:51:49;11.90;99.90
19224;DHT22;9746;47.180;9.776;2023-03-20T17:54:17;11.70;99.90
19224;DHT22;9746;47.180;9.776;2023-03-20T17:56:45;11.60;99.90
19224;DHT22;9746;47.180;9.776;2023-03-20T17:59:13;11.50;99.90
19224;DHT22;9746;47.180;9.776;2023-03-20T18:01:43;11.40;99.90
19224;DHT22;9746;47.180;9.776;2023-03-20T18:04:12;11.20;99.90
19224;DHT22;9746;47.180;9.776;2023-03-20T18:06:42;11.10;99.90
19224;DHT22;9746;47.180;9.776;2023-03-20T18:09:11;10.90;99.90
19224;DHT22;9746;47.180;9.776;2023-03-20T18:11:46;10.80;99.90
19224;DHT22;9746;47.180;9.776;2023-03-20T18:14:13;10.60;99.90
19224;DHT22;9746;47.180;9.776;2023-03-20T18:16:51;10.60;99.90
19224;DHT22;9746;47.180;9.776;2023-03-20T18:19:23;10.50;99.90
19224;DHT22;9746;47.180;9.776;2023-03-20T18:22:05;10.40;99.90
19224;DHT22;9746;47.180;9.776;2023-03-20T18:24:33;10.30;99.90
19224;DHT22;9746;47.180;9.776;2023-03-20T18:27:10;10.20;99.90
19224;DHT22;9746;47.180;9.776;2023-03-20T18:29:38;10.20;99.90
19224;DHT22;9746;47.180;9.776;2023-03-20T18:35:28;10.00;99.90
19224;DHT22;9746;47.180;9.776;2023-03-20T18:37:58;9.90;99.90
19224;DHT22;9746;47.180;9.776;2023-03-20T18:40:27;9.80;99.90
19224;DHT22;9746;47.180;9.776;2023-03-20T18:43:13;9.70;99.90
19224;DHT22;9746;47.180;9.776;2023-03-20T18:45:40;9.60;99.90
19224;DHT22;9746;47.180;9.776;2023-03-20T18:48:10;9.50;99.90
19224;DHT22;9746;47.180;9.776;2023-03-20T18:50:40;9.40;99.90
19224;DHT22;9746;47.180;9.776;2023-03-20T18:56:15;9.30;99.90
19224;DHT22;9746;47.180;9.776;2023-03-20T18:58:43;9.20;99.90
19224;DHT22;9746;47.180;9.776;2023-03-20T19:04:32;8.90;99.90
19224;DHT22;9746;47.180;9.776;2023-03-20T19:07:11;8.80;99.90
19224;DHT22;9746;47.180;9.776;2023-03-20T19:09:38;8.80;99.90
19224;DHT22;9746;47.180;9.776;2023-03-20T19:12:06;8.80;99.90
19224;DHT22;9746;47.180;9.776;2023-03-20T19:14:33;8.80;99.90
19224;DHT22;9746;47.180;9.776;2023-03-20T19:17:01;8.80;99.90
19224;DHT22;9746;47.180;9.776;2023-03-20T19:19:29;8.90;99.90
19224;DHT22;9746;47.180;9.776;2023-03-20T19:21:59;9.00;99.90
19224;DHT22;9746;47.180;9.776;2023-03-20T19:24:30;9.10;99.90
19224;DHT22;9746;47.180;9.776;2023-03-20T19:32:24;9.30;99.90
19224;DHT22;9746;47.180;9.776;2023-03-20T19:34:53;9.30;99.90
19224;DHT22;9746;47.180;9.776;2023-03-20T19:37:38;9.30;99.90
19224;DHT22;9746;47.180;9.776;2023-03-20T19:40:24;9.30;99.90
19224;DHT22;9746;47.180;9.776;2023-03-20T19:43:00;9.30;99.90
19224;DHT22;9746;47.180;9.776;2023-03-20T19:45:30;9.30;99.90
19224;DHT22;9746;47.180;9.776;2023-03-20T19:47:58;9.30;99.90
19224;DHT22;9746;47.180;9.776;2023-03-20T19:50:29;9.30;99.90
19224;DHT22;9746;47.180;9.776;2023-03-20T19:53:00;9.30;99.90
19224;DHT22;9746;47.180;9.776;2023-03-20T19:55:29;9.30;99.90
19224;DHT22;9746;47.180;9.776;2023-03-20T19:58:00;9.20;99.90
19224;DHT22;9746;47.180;9.776;2023-03-20T20:00:28;9.20;99.90
19224;DHT22;9746;47.180;9.776;2023-03-20T20:03:05;9.20;99.90
19224;DHT22;9746;47.180;9.776;2023-03-20T20:05:34;9.20;99.90
19224;DHT22;9746;47.180;9.776;2023-03-20T20:08:20;9.20;99.90
19224;DHT22;9746;47.180;9.776;2023-03-20T20:13:55;9.20;99.90
19224;DHT22;9746;47.180;9.776;2023-03-20T20:16:22;9.10;99.90
19224;DHT22;9746;47.180;9.776;2023-03-20T20:18:50;9.10;99.90
19224;DHT22;9746;47.180;9.776;2023-03-20T20:21:29;9.10;99.90
19224;DHT22;9746;47.180;9.776;2023-03-20T20:23:56;9.20;99.90
19224;DHT22;9746;47.180;9.776;2023-03-20T20:26:25;9.20;99.90
19224;DHT22;9746;47.180;9.776;2023-03-20T20:28:54;9.20;99.90
19224;DHT22;9746;47.180;9.776;2023-03-20T20:31:27;9.20;99.90
19224;DHT22;9746;47.180;9.776;2023-03-20T20:33:54;9.20;99.90
